Time;durP1;ratioP1;P1;durP2;ratioP2;P2;SDS_P1;SDS_P2;PMS_P1;PMS_P2;Temp;Humidity;BMP_temperature;BMP_pressure;BME280_temperature;BME280_humidity;BME280_pressure;Samples;Min_cycle;Max_cycle;Signal;HPM_P1;HPM_P2
2022/04/17 00:00:32;;;;;;;10.80;3.90;;;;;;;-0.13;94.03;101512.59;104710;1274;60588;-62
2022/04/17 00:03:21;;;;;;;9.70;3.80;;;;;;;-0.15;93.76;101506.85;104534;1274;60587;-62
2022/04/17 00:06:10;;;;;;;9.50;3.30;;;;;;;-0.22;93.41;101506.22;104664;1275;72502;-63
2022/04/17 00:08:57;;;;;;;11.00;3.50;;;;;;;-0.29;93.77;101508.75;104685;1275;67569;-62
2022/04/17 00:11:46;;;;;;;10.60;3.70;;;;;;;-0.35;93.71;101513.34;104688;1274;71790;-63
2022/04/17 00:14:33;;;;;;;11.90;4.00;;;;;;;-0.39;93.96;101509.19;104650;1274;60607;-62
2022/04/17 00:17:22;;;;;;;9.70;3.90;;;;;;;-0.41;94.20;101508.32;104779;1274;61929;-62
2022/04/17 00:20:17;;;;;;;11.20;3.90;;;;;;;-0.39;94.12;101505.35;104650;1275;75536;-64
2022/04/17 00:23:04;;;;;;;8.80;3.80;;;;;;;-0.40;93.97;101508.66;104508;1274;66719;-63
2022/04/17 00:25:53;;;;;;;10.90;3.80;;;;;;;-0.38;94.33;101508.30;104653;1275;72363;-65
2022/04/17 00:28:42;;;;;;;9.20;3.70;;;;;;;-0.32;94.56;101505.81;104919;1276;60878;-64
2022/04/17 00:31:29;;;;;;;9.70;3.70;;;;;;;-0.25;94.35;101502.95;104669;1274;60470;-64
2022/04/17 00:34:19;;;;;;;10.50;3.60;;;;;;;-0.19;94.23;101507.23;104686;1274;74695;-64
2022/04/17 00:37:07;;;;;;;13.00;6.30;;;;;;;-0.16;93.91;101507.39;104903;1274;68850;-65
2022/04/17 00:39:54;;;;;;;11.80;5.50;;;;;;;-0.13;93.71;101507.02;104839;1274;72292;-66
2022/04/17 00:42:42;;;;;;;14.10;8.10;;;;;;;-0.12;93.70;101505.26;104658;1274;60400;-63
2022/04/17 00:45:30;;;;;;;13.40;6.40;;;;;;;-0.11;93.30;101498.80;104687;1274;62342;-70
2022/04/17 00:48:18;;;;;;;13.20;7.60;;;;;;;-0.11;93.08;101493.91;104643;1274;74267;-63
2022/04/17 00:51:07;;;;;;;13.60;6.30;;;;;;;-0.11;92.83;101490.41;104809;1274;68530;-64
2022/04/17 00:53:57;;;;;;;10.80;5.20;;;;;;;-0.10;92.69;101488.65;104663;1274;72248;-60
2022/04/17 00:56:47;;;;;;;12.60;6.20;;;;;;;-0.09;92.45;101491.96;104825;1274;60479;-58
2022/04/17 00:59:36;;;;;;;18.30;8.10;;;;;;;-0.08;92.28;101496.30;104832;1274;60802;-59
2022/04/17 01:02:24;;;;;;;16.10;8.30;;;;;;;-0.06;92.12;101497.00;104996;1274;73298;-60
2022/04/17 01:05:12;;;;;;;16.00;7.80;;;;;;;-0.03;92.04;101495.05;104691;1274;66097;-62
2022/04/17 01:07:59;;;;;;;12.10;5.40;;;;;;;-0.03;91.66;101496.44;104672;1274;74323;-62
2022/04/17 01:10:47;;;;;;;10.80;4.30;;;;;;;-0.04;91.44;101491.21;104826;1274;60731;-61
2022/04/17 01:13:39;;;;;;;27.70;10.00;;;;;;;-0.06;91.33;101485.48;104699;1274;60450;-62
2022/04/17 01:16:27;;;;;;;21.60;8.60;;;;;;;-0.11;91.00;101481.87;104154;1274;1003765;-62
2022/04/17 01:19:15;;;;;;;44.20;24.30;;;;;;;-0.14;90.95;101486.09;104646;1274;67289;-62
2022/04/17 01:22:11;;;;;;;52.80;27.80;;;;;;;-0.19;90.69;101484.91;104638;1275;73421;-61
2022/04/17 01:28:06;;;;;;;47.00;24.70;;;;;;;-0.26;90.57;101483.41;104709;1274;61938;-61
2022/04/17 01:30:56;;;;;;;36.80;19.50;;;;;;;-0.28;90.42;101486.39;104528;1274;75015;-62
2022/04/17 01:33:43;;;;;;;28.10;16.20;;;;;;;-0.28;90.44;101486.75;104613;1275;69382;-64
2022/04/17 01:36:31;;;;;;;17.30;9.30;;;;;;;-0.26;90.73;101486.39;104887;1274;73593;-63
2022/04/17 01:39:19;;;;;;;18.80;9.50;;;;;;;-0.21;90.46;101487.38;104789;1274;60518;-62
2022/04/17 01:42:07;;;;;;;21.40;10.70;;;;;;;-0.16;90.34;101483.84;104765;1274;62140;-62
2022/04/17 01:44:56;;;;;;;26.90;13.30;;;;;;;-0.15;90.00;101481.21;104829;1274;74702;-62
2022/04/17 01:47:44;;;;;;;39.00;19.80;;;;;;;-0.14;89.57;101478.41;104650;1274;69799;-61
2022/04/17 01:50:32;;;;;;;24.10;11.30;;;;;;;-0.15;89.16;101477.55;104730;1274;74112;-63
2022/04/17 01:53:20;;;;;;;16.90;9.20;;;;;;;-0.18;88.93;101482.45;104653;1274;60608;-63
2022/04/17 01:56:07;;;;;;;16.60;8.30;;;;;;;-0.22;88.72;101481.97;104769;1274;60457;-64
2022/04/17 01:58:55;;;;;;;12.90;6.30;;;;;;;-0.25;88.50;101476.44;104622;1274;73994;-62
2022/04/17 02:01:44;;;;;;;12.40;6.10;;;;;;;-0.28;88.20;101472.98;104797;1274;68388;-61
2022/04/17 02:04:35;;;;;;;11.20;4.50;;;;;;;-0.33;88.16;101468.14;104804;1274;73538;-63
2022/04/17 02:07:23;;;;;;;11.80;4.30;;;;;;;-0.36;88.09;101464.67;104741;1275;60515;-62
2022/04/17 02:10:19;;;;;;;9.40;3.60;;;;;;;-0.37;88.02;101461.72;104666;1274;61809;-64
2022/04/17 02:13:07;;;;;;;7.60;3.40;;;;;;;-0.36;88.02;101462.58;104738;1274;74454;-64
2022/04/17 02:15:55;;;;;;;11.10;4.70;;;;;;;-0.34;88.11;101456.80;104624;1275;68148;-61
2022/04/17 02:18:45;;;;;;;9.40;4.10;;;;;;;-0.31;88.03;101453.81;104856;1274;74350;-61
2022/04/17 02:21:32;;;;;;;9.60;4.10;;;;;;;-0.29;88.14;101447.33;104589;1274;60532;-63
2022/04/17 02:24:20;;;;;;;9.20;3.80;;;;;;;-0.26;87.74;101444.36;104747;1274;60595;-63
2022/04/17 02:27:07;;;;;;;7.40;3.00;;;;;;;-0.27;87.54;101442.79;104036;1274;1003705;-62
2022/04/17 02:29:55;;;;;;;9.00;3.10;;;;;;;-0.30;87.42;101440.55;104733;1274;69543;-62
2022/04/17 02:32:43;;;;;;;8.60;2.40;;;;;;;-0.31;87.58;101443.17;104770;1274;72319;-66
2022/04/17 02:35:30;;;;;;;7.80;3.00;;;;;;;-0.36;87.51;101434.50;104724;1274;60480;-62
2022/04/17 02:38:18;;;;;;;7.70;2.80;;;;;;;-0.41;87.64;101430.19;104639;1274;61219;-63
2022/04/17 02:41:05;;;;;;;8.70;2.40;;;;;;;-0.44;87.78;101431.63;104637;1274;73910;-63
2022/04/17 02:43:53;;;;;;;7.20;2.40;;;;;;;-0.47;87.91;101427.46;104668;1275;68678;-63
2022/04/17 02:49:47;;;;;;;8.80;2.60;;;;;;;-0.49;88.10;101417.38;104861;1274;60368;-63
2022/04/17 02:52:36;;;;;;;8.70;2.80;;;;;;;-0.50;88.16;101418.77;104645;1274;62034;-64
2022/04/17 02:55:24;;;;;;;8.10;2.80;;;;;;;-0.48;88.15;101417.89;104825;1274;75683;-62
2022/04/17 02:58:11;;;;;;;8.30;2.70;;;;;;;-0.46;88.02;101417.68;104963;1274;68215;-64
2022/04/17 03:07:12;;;;;;;6.70;2.40;;;;;;;-0.43;87.82;101421.51;104816;1274;60429;-61
2022/04/17 03:10:02;;;;;;;8.10;2.80;;;;;;;-0.45;87.55;101419.61;104784;1274;73865;-63
2022/04/17 03:12:49;;;;;;;8.90;3.00;;;;;;;-0.49;87.55;101416.14;104623;1274;68449;-64
2022/04/17 03:15:38;;;;;;;6.70;2.20;;;;;;;-0.51;87.54;101410.60;103942;1274;1003497;-71
2022/04/17 03:18:26;;;;;;;6.90;2.20;;;;;;;-0.57;87.42;101406.98;104628;1274;60570;-64
2022/04/17 03:21:14;;;;;;;7.30;2.70;;;;;;;-0.64;87.26;101408.45;104712;1274;60468;-67
2022/04/17 03:24:02;;;;;;;8.60;3.00;;;;;;;-0.67;87.65;101409.02;104679;1274;75155;-62
2022/04/17 03:26:50;;;;;;;9.40;3.20;;;;;;;-0.70;87.72;101407.81;104902;1274;68721;-63
2022/04/17 03:29:37;;;;;;;9.30;2.70;;;;;;;-0.70;87.97;101410.08;104674;1274;74370;-63
2022/04/17 03:32:25;;;;;;;7.00;2.80;;;;;;;-0.69;88.00;101408.15;104749;1274;60589;-62
2022/04/17 03:35:18;;;;;;;6.90;2.40;;;;;;;-0.64;88.17;101404.80;104559;1274;60501;-65
2022/04/17 03:38:09;;;;;;;7.90;2.70;;;;;;;-0.60;88.11;101402.67;104475;1274;73005;-64
2022/04/17 03:40:59;;;;;;;7.30;2.40;;;;;;;-0.54;87.87;101399.29;104600;1274;69499;-65
2022/04/17 03:43:48;;;;;;;8.90;2.30;;;;;;;-0.48;87.88;101400.10;104799;1273;72192;-64
2022/04/17 03:46:35;;;;;;;7.00;2.10;;;;;;;-0.42;87.68;101398.11;104404;1274;60711;-62
2022/04/17 03:49:24;;;;;;;7.20;2.20;;;;;;;-0.37;87.29;101396.84;105009;1274;61780;-62
2022/04/17 03:52:12;;;;;;;6.50;1.90;;;;;;;-0.32;86.89;101392.09;104682;1274;75689;-63
2022/04/17 03:54:59;;;;;;;6.70;1.90;;;;;;;-0.27;86.62;101394.30;104767;1274;67914;-63
2022/04/17 03:57:47;;;;;;;5.40;1.80;;;;;;;-0.21;86.51;101391.08;104646;1274;73892;-63
2022/04/17 04:00:35;;;;;;;6.10;1.70;;;;;;;-0.15;86.05;101387.17;104651;1274;60487;-64
2022/04/17 04:03:24;;;;;;;6.60;2.10;;;;;;;-0.08;85.80;101387.27;104621;1274;62214;-64
2022/04/17 04:06:12;;;;;;;6.50;1.90;;;;;;;-0.02;85.30;101383.35;104931;1273;73253;-63
2022/04/17 04:08:59;;;;;;;5.50;1.90;;;;;;;0.05;85.18;101378.02;104590;1274;68294;-64
2022/04/17 04:11:47;;;;;;;6.00;1.90;;;;;;;0.12;84.64;101386.30;104664;1274;73289;-65
2022/04/17 04:14:34;;;;;;;7.60;2.00;;;;;;;0.23;84.34;101385.46;104595;1274;60737;-69
2022/04/17 04:17:21;;;;;;;8.30;2.10;;;;;;;0.33;84.05;101383.73;104671;1274;60790;-67
2022/04/17 04:20:10;;;;;;;5.70;1.70;;;;;;;0.46;83.70;101383.39;104623;1273;74723;-64
2022/04/17 04:22:58;;;;;;;6.10;2.00;;;;;;;0.61;83.23;101386.83;104638;1274;70086;-68
2022/04/17 04:25:46;;;;;;;6.40;1.80;;;;;;;0.80;82.71;101391.27;104637;1274;71665;-65
2022/04/17 04:28:36;;;;;;;6.20;1.60;;;;;;;0.98;82.22;101396.02;104592;1274;60599;-67
2022/04/17 04:31:23;;;;;;;7.90;2.00;;;;;;;1.16;81.44;101393.27;104726;1274;60707;-65
2022/04/17 04:34:11;;;;;;;5.40;1.70;;;;;;;1.34;80.71;101397.16;104951;1274;75227;-64
2022/04/17 04:36:59;;;;;;;6.80;1.90;;;;;;;1.54;80.32;101395.21;104604;1274;66340;-63
2022/04/17 04:39:46;;;;;;;5.70;1.80;;;;;;;1.75;79.68;101392.55;104632;1274;71859;-65
2022/04/17 04:42:34;;;;;;;5.70;1.70;;;;;;;1.92;78.68;101397.98;104540;1274;60522;-69
2022/04/17 04:51:36;;;;;;;7.40;2.70;;;;;;;2.27;76.99;101409.33;104658;1274;68675;-67
2022/04/17 04:54:24;;;;;;;7.50;2.80;;;;;;;2.37;76.31;101411.39;104842;1274;74465;-64
2022/04/17 04:57:12;;;;;;;8.90;3.00;;;;;;;2.48;76.08;101403.77;104845;1274;60506;-65
2022/04/17 04:59:59;;;;;;;9.30;3.60;;;;;;;2.59;75.95;101399.67;104614;1274;60509;-64
2022/04/17 05:02:47;;;;;;;10.50;3.40;;;;;;;2.68;75.88;101395.25;104881;1274;74555;-65
2022/04/17 05:05:36;;;;;;;11.40;3.60;;;;;;;2.78;75.56;101389.43;104647;1274;69740;-67
2022/04/17 05:08:23;;;;;;;10.00;3.60;;;;;;;2.88;75.42;101388.65;104890;1274;74276;-67
2022/04/17 05:11:16;;;;;;;10.10;3.60;;;;;;;3.01;74.27;101380.44;104747;1274;60802;-65
2022/04/17 05:14:11;;;;;;;8.40;2.70;;;;;;;3.16;73.62;101384.45;104836;1274;61897;-65
2022/04/17 05:16:59;;;;;;;7.80;3.00;;;;;;;3.33;72.71;101384.52;104648;1274;74514;-64
2022/04/17 05:19:47;;;;;;;10.20;3.50;;;;;;;3.57;71.96;101383.71;104756;1274;67435;-65
2022/04/17 05:22:35;;;;;;;11.90;3.70;;;;;;;3.80;71.06;101380.09;104922;1274;73240;-66
2022/04/17 05:25:24;;;;;;;9.70;3.30;;;;;;;4.04;69.92;101382.36;104664;1274;60503;-67
2022/04/17 05:28:15;;;;;;;9.00;3.00;;;;;;;4.29;69.20;101378.27;105002;1274;60991;-67
2022/04/17 05:31:03;;;;;;;8.40;2.60;;;;;;;4.55;68.17;101373.24;104657;1274;74526;-66
2022/04/17 05:33:51;;;;;;;10.10;3.10;;;;;;;4.82;67.06;101378.92;104914;1275;69476;-66
2022/04/17 05:36:39;;;;;;;6.80;1.90;;;;;;;5.03;65.30;101373.64;104741;1274;73650;-65
2022/04/17 05:39:27;;;;;;;7.70;2.10;;;;;;;5.20;64.59;101381.52;104641;1274;60090;-66
2022/04/17 05:42:17;;;;;;;7.70;2.00;;;;;;;5.41;64.20;101383.44;104897;1274;61015;-67
2022/04/17 05:45:06;;;;;;;7.10;1.80;;;;;;;5.65;63.43;101380.14;104811;1274;75422;-68
2022/04/17 05:47:55;;;;;;;6.70;2.10;;;;;;;5.97;62.30;101380.02;104726;1274;69444;-70
2022/04/17 05:50:43;;;;;;;6.60;2.30;;;;;;;6.90;60.01;101375.64;104561;1274;72123;-65
2022/04/17 05:53:31;;;;;;;7.90;2.70;;;;;;;7.95;56.36;101372.19;104767;1274;60548;-65
2022/04/17 05:56:18;;;;;;;7.00;2.20;;;;;;;8.49;53.92;101365.41;104736;1274;60581;-65
2022/04/17 05:59:07;;;;;;;8.00;2.30;;;;;;;9.37;52.73;101360.70;104890;1273;74690;-67
2022/04/17 06:01:55;;;;;;;6.40;2.30;;;;;;;10.46;49.15;101352.70;104770;1274;68135;-67
2022/04/17 06:04:43;;;;;;;6.50;2.00;;;;;;;11.52;46.56;101349.52;104687;1274;74725;-69
2022/04/17 06:07:34;;;;;;;5.80;1.80;;;;;;;12.50;45.22;101346.45;104685;1274;60443;-67
2022/04/17 06:10:21;;;;;;;5.40;1.60;;;;;;;13.64;42.72;101339.77;104731;1275;60784;-67
2022/04/17 06:13:09;;;;;;;5.80;1.60;;;;;;;14.78;39.60;101333.33;104721;1274;74633;-67
2022/04/17 06:15:57;;;;;;;5.40;1.30;;;;;;;15.91;36.58;101332.85;104766;1274;69802;-67
2022/04/17 06:18:45;;;;;;;4.90;1.30;;;;;;;16.75;33.28;101323.03;104759;1274;73379;-69
2022/04/17 06:21:33;;;;;;;4.20;0.90;;;;;;;18.05;31.18;101312.88;104767;1274;60464;-70
2022/04/17 06:24:21;;;;;;;4.30;0.90;;;;;;;18.80;29.81;101302.70;104748;1275;61000;-67
2022/04/17 06:27:08;;;;;;;6.30;1.10;;;;;;;19.13;28.82;101296.42;104777;1274;75390;-68
2022/04/17 06:29:56;;;;;;;5.70;1.50;;;;;;;20.24;27.29;101294.52;104745;1275;68414;-69
2022/04/17 06:32:45;;;;;;;9.70;4.30;;;;;;;21.16;26.00;101290.70;104764;1274;73447;-68
2022/04/17 06:35:33;;;;;;;7.90;3.90;;;;;;;21.58;24.79;101285.12;104818;1274;60531;-69
2022/04/17 06:38:21;;;;;;;4.50;1.00;;;;;;;22.12;24.34;101285.21;104883;1274;61991;-68
2022/04/17 06:41:09;;;;;;;4.80;1.10;;;;;;;23.17;22.14;101282.60;105075;1274;73455;-68
2022/04/17 06:43:57;;;;;;;7.70;3.50;;;;;;;23.93;21.27;101283.62;104796;1274;67526;-69
2022/04/17 06:46:45;;;;;;;4.60;1.00;;;;;;;24.70;20.12;101269.02;104680;1274;73248;-67
2022/04/17 06:49:33;;;;;;;5.50;1.70;;;;;;;25.30;18.87;101271.11;105179;1274;60576;-79
2022/04/17 06:52:25;;;;;;;4.80;1.00;;;;;;;25.70;17.80;101264.96;105769;1274;60714;-78
2022/04/17 06:55:13;;;;;;;4.30;1.00;;;;;;;25.98;18.10;101268.81;105424;1274;74378;-76
2022/04/17 06:58:02;;;;;;;4.90;1.10;;;;;;;26.10;18.25;101268.38;105047;1275;66812;-77
2022/04/17 07:00:49;;;;;;;4.70;1.00;;;;;;;25.50;17.59;101264.69;105042;1275;72029;-76
2022/04/17 07:03:37;;;;;;;5.20;1.00;;;;;;;25.05;17.56;101265.36;105062;1274;60436;-76
2022/04/17 07:06:24;;;;;;;4.70;0.90;;;;;;;24.70;17.83;101277.92;104957;1274;61802;-74
2022/04/17 07:09:12;;;;;;;4.40;0.80;;;;;;;24.80;17.66;101276.34;105274;1274;71820;-72
2022/04/17 07:11:59;;;;;;;4.80;0.90;;;;;;;24.20;17.65;101287.17;104846;1274;68476;-70
2022/04/17 07:14:49;;;;;;;5.60;1.10;;;;;;;23.41;18.33;101290.95;104651;1274;72378;-70
2022/04/17 07:17:41;;;;;;;4.50;1.00;;;;;;;22.98;18.23;101294.64;104924;1274;60569;-69
2022/04/17 07:20:30;;;;;;;5.10;1.10;;;;;;;22.93;18.48;101291.71;104763;1274;60832;-69
2022/04/17 07:23:18;;;;;;;8.30;3.10;;;;;;;23.18;19.05;101291.23;104698;1274;75308;-70
2022/04/17 07:26:06;;;;;;;10.90;3.30;;;;;;;23.34;18.83;101293.63;105162;1274;69550;-74
2022/04/17 07:28:54;;;;;;;6.30;1.80;;;;;;;22.91;19.39;101292.18;104875;1274;72737;-70
2022/04/17 07:31:41;;;;;;;6.50;1.50;;;;;;;23.14;19.05;101295.70;105231;1274;59985;-70
2022/04/17 07:34:29;;;;;;;7.60;1.70;;;;;;;23.47;19.02;101296.84;105183;1274;61013;-69
2022/04/17 07:37:31;;;;;;;8.10;1.90;;;;;;;23.77;18.47;101293.20;104759;1274;75288;-70
2022/04/17 07:40:25;;;;;;;5.60;1.30;;;;;;;23.85;17.99;101295.03;104783;1274;68718;-70
2022/04/17 07:43:12;;;;;;;11.90;2.80;;;;;;;23.38;18.36;101293.32;104750;1274;72362;-70
2022/04/17 07:46:01;;;;;;;11.80;2.40;;;;;;;23.46;19.08;101294.32;104749;1274;60615;-69
2022/04/17 07:48:48;;;;;;;7.00;1.80;;;;;;;23.69;18.10;101294.83;104501;1274;61798;-70
2022/04/17 07:51:36;;;;;;;9.00;2.10;;;;;;;23.98;18.19;101292.89;104496;1275;75192;-67
2022/04/17 07:54:24;;;;;;;10.70;2.70;;;;;;;24.09;18.57;101292.04;104768;1274;68412;-69
2022/04/17 07:57:14;;;;;;;7.50;2.10;;;;;;;24.09;18.06;101291.97;104678;1274;74419;-69
2022/04/17 08:00:03;;;;;;;7.90;2.10;;;;;;;24.18;18.16;101290.53;104666;1274;60470;-71
2022/04/17 08:04:01;;;;;;;5.10;1.30;;;;;;;24.50;17.51;101289.34;104661;1274;61044;-69
2022/04/17 08:06:20;;;;;;;5.10;1.20;;;;;;;24.80;16.54;101281.41;104656;1274;74451;-70
2022/04/17 08:09:08;;;;;;;3.90;0.90;;;;;;;25.06;16.41;101279.48;104693;1274;69740;-70
2022/04/17 08:11:55;;;;;;;5.80;1.30;;;;;;;25.14;16.10;101274.38;104651;1274;73123;-70
2022/04/17 08:14:43;;;;;;;4.50;1.00;;;;;;;25.25;15.62;101271.90;104693;1274;60387;-69
2022/04/17 08:17:30;;;;;;;6.40;1.00;;;;;;;25.61;15.27;101270.41;104658;1274;61888;-69
2022/04/17 08:20:19;;;;;;;4.40;0.80;;;;;;;25.82;14.91;101264.25;104695;1274;73870;-69
2022/04/17 08:23:07;;;;;;;4.70;0.90;;;;;;;25.82;14.35;101259.68;104921;1274;67374;-70
2022/04/17 08:25:55;;;;;;;3.30;0.70;;;;;;;25.77;13.99;101259.38;104823;1274;74350;-69
2022/04/17 08:28:43;;;;;;;4.30;0.80;;;;;;;25.68;13.22;101257.89;104627;1274;60605;-69
2022/04/17 08:31:30;;;;;;;5.90;1.30;;;;;;;25.61;13.32;101258.67;104885;1274;60761;-68
2022/04/17 08:34:18;;;;;;;5.00;0.90;;;;;;;25.72;13.41;101253.48;104674;1274;74245;-70
2022/04/17 08:37:06;;;;;;;4.20;0.70;;;;;;;25.90;12.90;101265.40;104717;1274;67725;-69
2022/04/17 08:39:54;;;;;;;4.40;0.90;;;;;;;26.16;12.98;101261.07;104827;1275;73299;-70
2022/04/17 08:42:42;;;;;;;4.20;0.90;;;;;;;26.30;12.73;101258.58;104666;1274;60477;-71
2022/04/17 08:45:30;;;;;;;4.50;0.90;;;;;;;26.18;12.68;101262.44;104703;1274;60461;-69
2022/04/17 08:48:18;;;;;;;7.80;1.70;;;;;;;25.98;12.73;101261.70;104672;1274;73061;-68
2022/04/17 08:51:07;;;;;;;6.40;1.60;;;;;;;26.02;12.91;101257.99;104960;1274;68049;-69
2022/04/17 08:53:56;;;;;;;6.50;1.10;;;;;;;26.14;12.65;101251.14;104697;1274;73057;-67
2022/04/17 08:56:43;;;;;;;4.90;0.80;;;;;;;26.29;12.71;101248.91;104843;1274;60614;-68
2022/04/17 08:59:32;;;;;;;4.10;0.80;;;;;;;26.37;12.93;101241.50;105187;1274;61149;-68
2022/04/17 09:02:21;;;;;;;4.20;0.70;;;;;;;26.45;12.77;101247.05;105580;1274;73906;-70
2022/04/17 09:05:13;;;;;;;3.70;0.90;;;;;;;26.33;13.09;101243.10;104932;1274;69361;-69
2022/04/17 09:08:23;;;;;;;7.10;1.80;;;;;;;26.18;13.15;101237.92;104708;1274;72735;-69
2022/04/17 09:11:11;;;;;;;5.50;1.10;;;;;;;26.26;13.01;101235.69;104490;1274;60488;-69
2022/04/17 09:14:01;;;;;;;4.60;0.80;;;;;;;26.21;13.02;101232.79;104648;1274;60717;-65
2022/04/17 09:16:50;;;;;;;3.50;0.70;;;;;;;26.04;12.45;101234.66;104674;1274;75697;-66
2022/04/17 09:19:39;;;;;;;4.10;0.80;;;;;;;25.98;12.20;101231.85;104687;1274;69502;-64
2022/04/17 09:22:51;;;;;;;6.20;1.20;;;;;;;26.00;11.94;101235.59;104713;1274;73268;-66
2022/04/17 09:25:39;;;;;;;3.40;0.70;;;;;;;25.85;12.67;101228.23;104866;1274;60567;-66
2022/04/17 09:28:32;;;;;;;3.70;0.70;;;;;;;26.00;12.38;101223.61;104646;1274;60392;-65
2022/04/17 09:31:25;;;;;;;5.50;1.10;;;;;;;25.78;12.39;101219.59;104608;1275;73041;-70
2022/04/17 09:34:15;;;;;;;6.80;1.40;;;;;;;25.73;12.82;101216.05;104625;1275;68408;-70
2022/04/17 09:37:11;;;;;;;6.00;1.30;;;;;;;25.73;12.66;101212.31;104642;1274;73400;-69
2022/04/17 09:40:07;;;;;;;5.20;1.00;;;;;;;25.73;12.83;101209.85;104653;1275;60533;-67
2022/04/17 09:43:14;;;;;;;7.10;1.70;;;;;;;25.71;12.56;101207.09;104900;1274;60529;-67
2022/04/17 09:46:09;;;;;;;5.10;0.90;;;;;;;25.56;12.68;101205.77;104487;1275;75387;-67
2022/04/17 09:48:57;;;;;;;4.40;0.90;;;;;;;25.34;12.99;101201.64;104564;1274;69197;-68
2022/04/17 09:51:45;;;;;;;5.60;1.30;;;;;;;25.48;13.98;101196.50;104465;1275;73318;-69
2022/04/17 09:54:33;;;;;;;7.60;1.50;;;;;;;25.63;14.00;101193.12;104821;1275;60477;-66
2022/04/17 09:57:35;;;;;;;5.70;1.20;;;;;;;25.72;14.05;101190.91;104800;1274;60845;-66
2022/04/17 10:00:24;;;;;;;4.80;1.00;;;;;;;25.73;14.31;101189.13;104841;1274;74453;-68
2022/04/17 10:03:12;;;;;;;5.80;1.00;;;;;;;25.65;14.35;101182.38;104626;1275;69127;-67
2022/04/17 10:06:00;;;;;;;7.10;1.50;;;;;;;25.54;14.46;101180.77;104684;1274;72283;-68
2022/04/17 10:08:48;;;;;;;4.80;1.10;;;;;;;25.53;14.31;101179.55;104811;1274;60517;-69
2022/04/17 10:11:40;;;;;;;7.20;1.30;;;;;;;25.78;13.52;101173.80;104732;1274;61903;-67
2022/04/17 10:14:31;;;;;;;9.00;1.70;;;;;;;25.64;13.39;101175.09;104930;1274;75380;-68
2022/04/17 10:17:22;;;;;;;5.40;0.90;;;;;;;25.34;14.39;101174.90;104706;1274;69582;-67
2022/04/17 10:20:13;;;;;;;4.50;0.90;;;;;;;25.29;13.17;101167.33;104747;1274;74213;-67
2022/04/17 10:23:05;;;;;;;4.60;1.00;;;;;;;25.16;14.22;101164.55;104798;1274;60447;-69
2022/04/17 10:25:58;;;;;;;4.60;0.80;;;;;;;25.12;14.16;101162.61;105150;1274;60463;-66
2022/04/17 10:28:53;;;;;;;4.60;1.00;;;;;;;24.98;13.50;101156.97;104891;1274;74401;-70
2022/04/17 10:31:52;;;;;;;3.80;0.80;;;;;;;24.66;13.99;101154.48;104636;1274;66803;-65
2022/04/17 10:35:17;;;;;;;4.60;1.00;;;;;;;24.39;14.70;101147.85;104874;1274;72981;-68
2022/04/17 10:39:03;;;;;;;5.80;1.00;;;;;;;24.16;14.10;101148.23;104662;1274;60599;-67
2022/04/17 10:41:51;;;;;;;4.70;0.90;;;;;;;23.90;14.79;101150.39;104397;1281;61282;-69
2022/04/17 10:44:41;;;;;;;4.60;1.00;;;;;;;23.82;14.48;101148.05;104727;1281;74043;-69
2022/04/17 10:47:30;;;;;;;5.70;1.20;;;;;;;23.64;15.02;101144.52;104050;1281;69962;-69
2022/04/17 10:50:21;;;;;;;5.50;1.00;;;;;;;23.66;14.91;101138.45;104234;1281;73354;-67
2022/04/17 10:53:31;;;;;;;5.30;1.20;;;;;;;23.90;13.84;101134.45;104512;1281;60602;-69
2022/04/17 10:56:20;;;;;;;6.50;1.30;;;;;;;24.25;13.58;101125.98;104142;1284;60910;-75
2022/04/17 10:59:19;;;;;;;5.40;1.30;;;;;;;24.24;14.00;101121.23;104185;1284;72712;-74
2022/04/17 11:02:07;;;;;;;4.30;1.10;;;;;;;24.35;13.60;101121.41;103911;1284;68580;-75
2022/04/17 11:04:58;;;;;;;5.00;1.20;;;;;;;24.31;13.07;101120.73;104062;1284;74600;-73
2022/04/17 11:07:46;;;;;;;6.90;1.70;;;;;;;24.29;14.19;101118.04;104053;1284;61268;-73
2022/04/17 11:10:42;;;;;;;5.10;1.20;;;;;;;24.35;13.85;101110.70;104521;1284;60630;-76
2022/04/17 11:13:34;;;;;;;8.70;4.60;;;;;;;24.39;14.04;101104.70;104018;1284;72683;-75
2022/04/17 11:16:26;;;;;;;5.80;1.30;;;;;;;24.27;13.93;101099.66;103984;1284;68043;-74
2022/04/17 11:19:20;;;;;;;4.60;1.20;;;;;;;24.14;13.86;101094.34;104420;1278;71524;-75
2022/04/17 11:22:09;;;;;;;4.70;1.00;;;;;;;24.11;13.95;101089.02;104582;1278;60609;-74
2022/04/17 11:25:03;;;;;;;4.50;1.20;;;;;;;23.81;13.78;101080.46;104568;1278;60543;-76
2022/04/17 11:27:51;;;;;;;4.50;1.00;;;;;;;23.59;14.30;101080.84;104679;1278;75158;-75
2022/04/17 11:30:59;;;;;;;5.70;1.20;;;;;;;23.30;14.40;101079.34;104813;1274;67875;-76
2022/04/17 11:33:47;;;;;;;4.80;1.00;;;;;;;23.14;14.64;101082.23;105007;1274;72863;-76
2022/04/17 11:36:35;;;;;;;4.40;0.80;;;;;;;22.84;14.49;101082.38;105155;1274;60587;-73
2022/04/17 11:39:27;;;;;;;5.10;1.10;;;;;;;22.44;14.57;101084.84;105188;1274;60345;-73
2022/04/17 11:42:16;;;;;;;4.80;1.10;;;;;;;21.91;15.13;101082.94;105229;1274;74132;-72
2022/04/17 11:45:05;;;;;;;6.60;2.30;;;;;;;21.72;16.01;101082.86;105043;1275;67544;-77
2022/04/17 11:47:55;;;;;;;5.10;1.30;;;;;;;21.28;16.23;101086.64;105014;1274;70439;-74
2022/04/17 11:50:44;;;;;;;4.00;1.00;;;;;;;20.81;15.52;101090.35;105198;1275;60515;-78
2022/04/17 11:53:33;;;;;;;5.80;1.00;;;;;;;20.43;16.13;101085.92;104960;1275;60475;-73
2022/04/17 11:56:21;;;;;;;5.00;1.00;;;;;;;20.15;16.88;101085.73;105142;1274;72496;-72
2022/04/17 11:59:08;;;;;;;4.50;0.90;;;;;;;19.88;16.74;101085.05;105143;1274;66553;-67
2022/04/17 12:02:17;;;;;;;5.00;1.30;;;;;;;19.59;17.29;101084.73;105138;1275;73815;-75
2022/04/17 12:05:09;;;;;;;5.60;1.20;;;;;;;18.98;18.95;101086.91;105083;1275;60949;-69
2022/04/17 12:08:15;;;;;;;5.30;1.30;;;;;;;18.48;20.21;101091.61;104975;1274;60461;-73
2022/04/17 12:11:08;;;;;;;5.00;1.10;;;;;;;17.89;19.94;101090.85;104960;1274;72522;-72
2022/04/17 12:13:56;;;;;;;4.10;0.90;;;;;;;17.29;19.87;101088.55;104969;1275;69097;-72
2022/04/17 12:16:52;;;;;;;4.70;1.20;;;;;;;16.67;19.56;101085.77;104917;1275;75040;-72
2022/04/17 12:19:50;;;;;;;5.30;1.20;;;;;;;16.19;20.71;101078.75;104779;1274;60509;-71
2022/04/17 12:22:37;;;;;;;6.40;1.80;;;;;;;15.77;21.85;101081.00;104745;1275;60472;-71
2022/04/17 12:25:26;;;;;;;5.60;1.10;;;;;;;15.40;20.40;101078.67;104897;1274;71544;-70
2022/04/17 12:28:14;;;;;;;5.10;1.20;;;;;;;15.05;21.81;101074.73;105126;1274;66864;-71
2022/04/17 12:31:02;;;;;;;4.90;1.30;;;;;;;14.81;23.27;101075.21;104850;1274;72462;-70
2022/04/17 12:34:04;;;;;;;5.40;1.60;;;;;;;14.60;23.91;101080.05;104853;1274;60382;-73
2022/04/17 12:36:52;;;;;;;5.10;1.30;;;;;;;14.41;23.53;101075.41;104911;1274;60510;-69
2022/04/17 12:39:41;;;;;;;4.50;1.20;;;;;;;14.21;24.03;101075.58;105396;1273;74018;-71
2022/04/17 12:42:28;;;;;;;5.80;1.50;;;;;;;14.03;23.99;101071.92;104866;1274;68121;-70
2022/04/17 12:45:24;;;;;;;4.70;1.30;;;;;;;13.85;24.25;101077.39;104670;1274;73202;-69
2022/04/17 12:48:14;;;;;;;3.70;0.90;;;;;;;13.65;23.81;101070.48;105164;1275;60474;-69
2022/04/17 12:51:05;;;;;;;4.70;1.20;;;;;;;13.48;24.75;101064.99;104584;1274;60879;-70
2022/04/17 12:53:52;;;;;;;5.00;1.50;;;;;;;13.37;25.46;101060.77;104559;1275;72848;-70
2022/04/17 12:56:40;;;;;;;5.30;1.30;;;;;;;13.25;25.92;101057.38;104715;1275;68701;-69
2022/04/17 12:59:40;;;;;;;4.60;1.20;;;;;;;13.12;25.93;101056.49;104659;1274;73323;-68
2022/04/17 13:02:28;;;;;;;5.30;1.50;;;;;;;13.05;26.33;101050.43;104916;1274;60336;-67
2022/04/17 13:05:23;;;;;;;6.50;1.60;;;;;;;12.92;26.92;101049.04;104784;1274;61854;-70
2022/04/17 13:08:11;;;;;;;5.10;1.50;;;;;;;12.80;26.66;101045.42;104915;1274;76608;-66
2022/04/17 13:11:20;;;;;;;6.50;1.50;;;;;;;12.66;27.05;101047.33;104842;1274;67762;-69
2022/04/17 13:14:08;;;;;;;5.80;1.30;;;;;;;12.58;25.72;101045.61;104786;1275;74757;-69
2022/04/17 13:17:00;;;;;;;5.50;1.40;;;;;;;12.36;24.07;101044.45;104590;1275;60506;-71
2022/04/17 13:19:51;;;;;;;5.80;1.60;;;;;;;12.20;25.53;101037.58;105070;1275;61478;-71